Time;durP1;ratioP1;P1;durP2;ratioP2;P2;SDS_P1;SDS_P2;PMS_P1;PMS_P2;Temp;Humidity;BMP_temperature;BMP_pressure;BME280_temperature;BME280_humidity;BME280_pressure;Samples;Min_cycle;Max_cycle;Signal;HPM_P1;HPM_P2
2022/03/25 00:25:15;;;;;;;47.95;27.70;;;;;;;9.66;44.58;101449.84;5574204;23;20434;31
2022/03/25 00:40:29;;;;;;;49.03;27.40;;;;;;;9.38;44.75;101395.94;4834988;29;20111;-94
2022/03/25 00:43:23;;;;;;;49.70;27.50;;;;;;;9.59;44.77;101442.13;4913616;24;20044;-95
2022/03/25 00:46:31;;;;;;;;;;;;;;;;;;;;;
2022/03/25 00:49:08;;;;;;;52.53;29.20;;;;;;;9.26;44.73;101391.88;4874884;29;20078;-95
2022/03/25 00:57:52;;;;;;;;;;;;;;;;;;;;;
2022/03/25 01:01:19;;;;;;;49.17;28.85;;;;;;;9.20;45.79;101407.00;4850349;29;20060;-94
2022/03/25 01:04:03;;;;;;;45.90;27.35;;;;;;;9.22;45.89;101413.13;4837226;29;20064;-93
2022/03/25 01:06:36;;;;;;;52.50;29.65;;;;;;;9.01;46.09;101393.38;4851655;29;20068;-95
2022/03/25 01:09:51;;;;;;;50.30;27.92;;;;;;;8.99;46.40;101382.84;5020589;24;20760;-94
2022/03/25 01:12:37;;;;;;;47.35;28.23;;;;;;;9.13;46.37;101408.91;5187702;24;20080;-95
2022/03/25 01:15:26;;;;;;;49.00;28.23;;;;;;;9.19;46.42;101432.56;4950321;24;20063;-96
2022/03/25 01:18:41;;;;;;;50.17;29.08;;;;;;;9.24;46.75;101443.00;4925283;29;20063;-96
2022/03/25 01:21:59;;;;;;;;;;;;;;;;;;;;;
2022/03/25 01:25:31;;;;;;;;;;;;;;;;;;;;;
2022/03/25 05:00:20;;;;;;;48.25;27.33;;;;;;;7.31;53.04;101380.25;5059015;23;20056;-95
2022/03/25 05:02:53;;;;;;;48.72;27.80;;;;;;;7.55;53.18;101428.16;4891011;29;20076;-96
2022/03/25 05:05:32;;;;;;;48.53;28.05;;;;;;;7.27;52.91;101389.09;4891109;29;20160;-95
2022/03/25 05:08:06;;;;;;;54.08;28.83;;;;;;;7.22;52.85;101382.19;4897832;29;20546;-96
2022/03/25 05:10:35;;;;;;;49.08;28.55;;;;;;;7.38;53.45;101412.66;4903979;29;20056;-95
2022/03/25 05:13:29;;;;;;;49.83;27.50;;;;;;;7.48;53.12;101418.59;4887535;29;20073;-96
2022/03/25 05:15:58;;;;;;;54.53;28.38;;;;;;;7.56;52.96;101424.59;4895221;29;20437;-95
2022/03/25 05:18:25;;;;;;;53.70;29.08;;;;;;;7.73;52.29;101420.75;4895364;29;20044;-94
2022/03/25 05:20:56;;;;;;;51.42;27.45;;;;;;;7.70;52.07;101414.69;4888876;29;20045;-96
2022/03/25 05:23:41;;;;;;;51.65;28.13;;;;;;;7.77;52.45;101429.47;4902839;29;20480;-96
2022/03/25 05:26:21;;;;;;;51.70;28.30;;;;;;;8.01;51.69;101452.75;4896603;29;20121;-95
2022/03/25 05:28:55;;;;;;;49.53;28.58;;;;;;;8.02;52.11;101465.06;4902593;29;20139;-95
2022/03/25 05:31:29;;;;;;;53.83;28.63;;;;;;;7.69;51.82;101412.94;4903392;29;20136;-96
2022/03/25 05:34:03;;;;;;;53.28;28.48;;;;;;;8.01;52.15;101458.03;4896129;29;20083;-95
2022/03/25 05:36:36;;;;;;;51.83;29.73;;;;;;;7.91;52.22;101434.50;4890534;29;20045;-96
2022/03/25 05:39:04;;;;;;;48.63;28.33;;;;;;;7.69;52.21;101391.88;4887576;29;20051;-96
2022/03/25 05:41:40;;;;;;;51.90;28.42;;;;;;;7.82;51.17;101414.44;4896741;29;20136;-94
2022/03/25 05:44:31;;;;;;;49.85;28.15;;;;;;;7.85;51.71;101416.16;4891164;29;20064;-96
2022/03/25 05:47:02;;;;;;;53.03;28.35;;;;;;;7.84;51.60;101409.16;4894747;29;20056;-96
2022/03/25 05:49:31;;;;;;;53.00;28.63;;;;;;;8.00;51.41;101440.47;4893651;29;20053;-96
2022/03/25 05:52:10;;;;;;;51.85;28.88;;;;;;;7.92;51.09;101420.41;4885764;29;20048;-95
2022/03/25 05:54:37;;;;;;;47.20;28.23;;;;;;;8.15;51.19;101448.97;4896425;29;20087;-95
2022/03/25 05:57:10;;;;;;;48.83;27.95;;;;;;;8.01;50.71;101426.38;4893011;29;20056;-95
2022/03/25 05:59:47;;;;;;;53.05;27.83;;;;;;;8.12;50.84;101443.75;4889938;29;20049;-96
2022/03/25 06:02:31;;;;;;;53.10;28.25;;;;;;;8.12;50.28;101443.75;4896292;29;20063;-96
2022/03/25 06:05:05;;;;;;;52.03;28.23;;;;;;;8.33;50.88;101475.03;4890839;29;20087;-95
2022/03/25 06:07:42;;;;;;;52.47;29.02;;;;;;;8.28;50.74;101464.53;4890072;29;20495;-96
2022/03/25 06:10:13;;;;;;;52.57;28.93;;;;;;;8.43;50.51;101484.47;4902401;29;20056;-95
2022/03/25 06:12:49;;;;;;;54.67;28.83;;;;;;;8.22;50.18;101442.66;4899084;29;20059;-95
2022/03/25 06:15:44;;;;;;;49.45;28.10;;;;;;;8.48;50.18;101485.25;4894458;29;20066;-96
2022/03/25 06:18:19;;;;;;;57.70;29.52;;;;;;;8.59;50.29;101514.06;4889050;29;20057;-94
2022/03/25 06:20:54;;;;;;;54.65;28.77;;;;;;;8.56;49.98;101475.41;4894384;29;20052;-96
2022/03/25 06:23:25;;;;;;;55.20;28.25;;;;;;;8.44;50.11;101449.28;4891728;29;20487;-96
2022/03/25 06:26:13;;;;;;;55.00;28.42;;;;;;;8.47;49.96;101451.84;4895638;29;20055;-96
2022/03/25 06:28:55;;;;;;;54.40;28.88;;;;;;;8.47;50.16;101446.56;4905537;29;20057;-96
2022/03/25 06:31:26;;;;;;;54.80;29.23;;;;;;;8.52;50.44;101454.38;4891247;29;20055;-95
2022/03/25 06:34:07;;;;;;;51.22;28.08;;;;;;;8.49;50.12;101450.06;4887264;29;20068;-96
2022/03/25 06:36:36;;;;;;;48.17;28.30;;;;;;;8.49;49.87;101444.78;4887413;29;20161;-95
2022/03/25 06:39:12;;;;;;;50.22;28.65;;;;;;;8.89;50.00;101505.47;4900948;29;20045;-94
2022/03/25 06:42:03;;;;;;;52.25;28.77;;;;;;;8.74;49.76;101464.44;4890520;29;20105;-95
2022/03/25 06:44:40;;;;;;;56.72;29.58;;;;;;;8.75;49.59;101466.19;4895225;29;20123;-95
2022/03/25 06:47:12;;;;;;;51.05;28.10;;;;;;;8.74;49.61;101440.66;4892218;29;20089;-95
2022/03/25 06:49:44;;;;;;;49.03;27.95;;;;;;;8.79;49.30;101441.44;4894661;29;20456;-95
2022/03/25 06:52:25;;;;;;;52.97;29.35;;;;;;;9.09;49.61;101495.34;4887377;29;20484;-94
2022/03/25 06:54:55;;;;;;;51.67;28.25;;;;;;;9.08;48.76;101472.47;4892346;29;20056;-95
2022/03/25 06:57:40;;;;;;;55.58;28.23;;;;;;;9.34;48.99;101503.53;4898659;29;20063;-96
2022/03/25 07:00:24;;;;;;;48.08;27.42;;;;;;;9.26;48.35;101480.84;4887106;29;20087;-94
2022/03/25 07:02:57;;;;;;;50.78;28.88;;;;;;;9.22;48.18;101464.19;4899871;29;20079;-96
2022/03/25 07:05:31;;;;;;;52.28;28.17;;;;;;;9.45;47.85;101490.91;4896500;29;20051;-94
2022/03/25 07:08:02;;;;;;;50.83;28.95;;;;;;;9.49;48.02;101479.38;4903736;29;20044;-95
2022/03/25 07:10:35;;;;;;;45.03;26.95;;;;;;;9.42;47.74;101451.38;4904893;29;20039;-95
2022/03/25 07:13:05;;;;;;;48.40;27.73;;;;;;;9.76;47.85;101504.22;4895041;29;20052;-95
2022/03/25 07:15:36;;;;;;;53.30;29.63;;;;;;;9.75;47.32;101491.06;4891655;29;20091;-96
2022/03/25 07:18:05;;;;;;;;;;;;;;;10.04;47.43;101522.91;4891545;29;20049;-95
2022/03/25 07:23:32;;;;;;;54.08;28.58;;;;;;;10.09;46.75;101488.34;4897308;29;20060;-95
2022/03/25 07:26:17;;;;;;;50.78;28.50;;;;;;;10.28;46.58;101499.34;4887258;29;20037;-94
2022/03/25 07:28:51;;;;;;;54.75;28.83;;;;;;;10.49;45.92;101504.91;4898124;29;20048;-95
2022/03/25 07:31:28;;;;;;;50.10;29.00;;;;;;;10.41;46.30;101484.84;4886446;29;20086;-93
2022/03/25 07:34:11;;;;;;;48.20;27.80;;;;;;;10.49;46.43;101486.38;4899259;29;20061;-95
2022/03/25 07:37:06;;;;;;;49.63;28.58;;;;;;;10.88;46.63;101526.69;4889986;29;20052;-94
2022/03/25 07:39:38;;;;;;;50.83;28.08;;;;;;;10.94;45.17;101525.66;4887474;29;20045;-95
2022/03/25 07:42:09;;;;;;;49.20;28.83;;;;;;;11.24;44.23;101537.06;4886431;29;20053;-95
2022/03/25 07:44:57;;;;;;;58.25;29.90;;;;;;;11.22;44.47;101504.44;4897538;29;20059;-94
2022/03/25 07:47:40;;;;;;;53.95;28.75;;;;;;;11.34;44.31;101519.94;4898983;29;20168;-95
2022/03/25 07:50:31;;;;;;;51.08;28.13;;;;;;;11.53;44.56;101538.78;4898216;29;20498;-96
2022/03/25 07:53:11;;;;;;;52.28;29.15;;;;;;;11.46;45.00;101511.63;4899293;29;20124;-95
2022/03/25 07:55:50;;;;;;;50.40;29.48;;;;;;;11.71;44.25;101540.84;4900953;29;20053;-94
2022/03/25 07:58:29;;;;;;;50.55;29.52;;;;;;;11.63;44.35;101515.50;4894856;29;20040;-95
2022/03/25 08:01:17;;;;;;;52.03;29.67;;;;;;;11.59;43.86;101489.06;4919467;29;20047;-95
2022/03/25 08:03:50;;;;;;;50.20;28.45;;;;;;;11.95;43.54;101544.50;4904931;29;20112;-95
2022/03/25 08:06:25;;;;;;;53.03;29.63;;;;;;;11.68;43.59;101487.88;4904152;29;20073;-94
2022/03/25 08:09:07;;;;;;;48.88;29.02;;;;;;;11.70;43.82;101479.84;4896198;29;20045;-95
2022/03/25 08:11:36;;;;;;;;;;;;;;;12.20;43.44;101550.69;4895313;29;20048;-96
2022/03/25 08:14:14;;;;;;;51.30;28.83;;;;;;;12.23;42.81;101534.63;4913201;29;19923;-95
2022/03/25 08:16:59;;;;;;;49.83;29.65;;;;;;;12.17;43.21;101521.56;4896266;29;20055;-94
2022/03/25 08:19:36;;;;;;;47.83;29.27;;;;;;;12.31;42.33;101513.09;4902560;29;20478;-96
2022/03/25 08:22:11;;;;;;;49.80;29.20;;;;;;;12.30;42.68;101488.31;4907791;29;20055;-96
2022/03/25 08:31:04;;;;;;;53.75;31.38;;;;;;;12.97;41.21;101530.97;4880289;29;20061;-95
2022/03/25 08:33:39;;;;;;;45.85;28.50;;;;;;;13.02;41.47;101513.97;5180963;23;20130;-95
2022/03/25 08:39:46;;;;;;;53.45;29.92;;;;;;;13.13;41.09;101506.44;5212813;23;20393;-96
2022/03/25 08:42:45;;;;;;;51.60;30.17;;;;;;;13.26;40.78;101519.19;4919310;24;20146;-96
2022/03/25 08:45:44;;;;;;;52.05;30.17;;;;;;;13.28;40.82;101517.34;4889189;29;20044;-95
2022/03/25 08:48:26;;;;;;;53.42;30.30;;;;;;;13.42;40.43;101505.28;4889789;29;20415;-94
2022/03/25 08:51:03;;;;;;;53.28;31.45;;;;;;;13.67;39.82;101521.97;4889423;29;20081;-96
2022/03/25 09:00:15;;;;;;;57.88;31.75;;;;;;;14.01;39.94;101556.88;4978444;24;20065;-94
2022/03/25 09:02:57;;;;;;;52.53;32.75;;;;;;;14.00;39.10;101509.91;4892739;29;20053;-92
2022/03/25 09:09:31;;;;;;;55.05;32.22;;;;;;;15.31;37.02;101533.16;4975959;23;20044;-94
2022/03/25 09:19:00;;;;;;;49.47;32.08;;;;;;;16.67;34.53;101534.25;5278129;23;20888;-95
2022/03/25 09:21:36;;;;;;;53.40;32.25;;;;;;;17.09;33.79;101515.81;5215054;23;20144;-95
2022/03/25 09:25:28;;;;;;;;;;;;;;;;;;;;;
2022/03/25 09:28:24;;;;;;;54.10;33.97;;;;;;;17.98;31.46;101559.78;4994854;23;20080;-96
2022/03/25 09:31:14;;;;;;;55.45;34.47;;;;;;;18.28;30.87;101545.47;4873231;29;20085;-95
2022/03/25 09:45:07;;;;;;;49.97;33.17;;;;;;;19.13;29.95;101505.25;4859864;29;20057;-96
2022/03/25 09:56:29;;;;;;;;;;;;;;;;;;;;;
2022/03/25 09:59:48;;;;;;;;;;;;;;;;;;;;;
2022/03/25 10:02:57;;;;;;;48.03;34.20;;;;;;;21.06;27.51;101531.38;4858781;29;20033;-95
2022/03/25 10:05:34;;;;;;;49.72;34.25;;;;;;;21.52;25.65;101501.91;4878318;29;20054;-96
2022/03/25 10:08:45;;;;;;;50.92;34.38;;;;;;;21.68;26.55;101559.94;4873739;29;20061;-96
2022/03/25 10:20:00;;;;;;;46.67;33.38;;;;;;;21.79;25.64;101504.34;4911581;24;20427;-94
2022/03/25 10:23:57;;;;;;;48.42;34.60;;;;;;;22.50;24.61;101511.41;4884572;29;20099;-94
2022/03/25 10:26:38;;;;;;;48.88;34.42;;;;;;;23.18;23.48;101522.06;4882127;29;20052;-94
2022/03/25 10:29:38;;;;;;;46.45;33.55;;;;;;;23.52;22.82;101498.53;4891430;29;20113;-93
2022/03/25 10:32:40;;;;;;;51.35;35.53;;;;;;;24.36;21.36;101500.31;4885287;29;20064;-96
2022/03/25 10:35:13;;;;;;;49.47;35.67;;;;;;;24.65;21.42;101530.25;4877716;29;20073;-95
2022/03/25 10:38:18;;;;;;;49.95;35.95;;;;;;;23.96;21.43;101491.19;4885903;29;20053;-94
2022/03/25 10:41:03;;;;;;;44.60;33.92;;;;;;;23.91;21.99;101540.31;4872523;29;20053;-94
2022/03/25 10:44:18;;;;;;;44.80;34.05;;;;;;;24.22;21.64;101551.22;4875898;29;20196;-96
2022/03/25 10:47:22;;;;;;;45.30;33.40;;;;;;;24.70;20.89;101527.16;4882195;29;20540;-94
2022/03/25 10:49:57;;;;;;;47.78;36.25;;;;;;;;;;4887880;29;20410;-93
2022/03/25 10:52:42;;;;;;;46.42;35.53;;;;;;;24.55;21.31;101521.25;4859541;29;20045;-96
2022/03/25 11:35:58;;;;;;;;;;;;;;;;;;;;;
2022/03/25 11:43:26;;;;;;;;;;;;;;;;;;;;;
2022/03/25 11:46:29;;;;;;;40.83;32.65;;;;;;;26.97;17.75;101475.97;5097680;23;20069;-96
2022/03/25 11:56:14;;;;;;;43.88;32.97;;;;;;;28.38;16.97;101499.59;5397467;23;20068;-96
2022/03/25 11:59:42;;;;;;;41.70;33.08;;;;;;;28.97;15.67;101468.72;4965865;23;20063;-94
2022/03/25 12:04:52;;;;;;;41.85;34.10;;;;;;;28.23;16.73;101455.75;5418256;23;20364;-95
2022/03/25 12:10:52;;;;;;;37.28;31.23;;;;;;;29.08;15.78;101480.34;5194461;23;20077;-94
2022/03/25 12:14:32;;;;;;;;;;;;;;;;;;;;;
2022/03/25 12:17:34;;;;;;;38.03;33.13;;;;;;;29.04;15.04;101443.53;4852982;29;19963;-96
2022/03/25 12:20:16;;;;;;;41.86;34.90;;;;;;;28.71;15.26;101450.72;4806658;23;4831185;-95
2022/03/25 12:38:47;;;;;;;40.92;33.63;;;;;;;28.58;15.10;101423.91;4985320;23;20109;-94
2022/03/25 12:53:48;;;;;;;41.70;32.90;;;;;;;28.78;14.28;101429.97;4864977;29;20053;-94
2022/03/25 12:56:16;;;;;;;41.03;31.63;;;;;;;28.23;14.60;101404.00;4846031;29;20089;-94
2022/03/25 12:58:57;;;;;;;40.50;30.75;;;;;;;28.82;14.07;101434.94;4870453;29;20049;-94
2022/03/25 13:01:46;;;;;;;36.88;30.63;;;;;;;28.77;14.08;101420.94;4865723;29;20046;-95
2022/03/25 13:04:40;;;;;;;41.97;32.83;;;;;;;28.79;14.65;101409.88;4849060;29;20098;-95
2022/03/25 13:07:58;;;;;;;41.00;33.08;;;;;;;28.64;15.17;101396.03;4847956;29;20110;-95
2022/03/25 13:10:43;;;;;;;43.17;35.45;;;;;;;28.60;15.24;101395.50;4859764;29;20049;-96
2022/03/25 13:22:56;;;;;;;40.35;32.53;;;;;;;29.41;14.54;101437.66;5160162;23;20120;-95
2022/03/25 13:26:31;;;;;;;41.60;33.67;;;;;;;29.59;14.42;101373.69;4896747;29;20045;-95
2022/03/25 13:33:03;;;;;;;40.45;34.67;;;;;;;28.91;15.73;101375.84;4969134;23;20088;-96
2022/03/25 13:36:03;;;;;;;41.05;34.33;;;;;;;28.63;14.95;101392.44;4917525;29;20120;-95
2022/03/25 13:38:55;;;;;;;41.17;33.50;;;;;;;28.32;15.91;101385.00;4914029;29;20560;-96
2022/03/25 13:57:07;;;;;;;39.38;29.85;;;;;;;29.31;14.54;101411.34;2158319;23;20236;-90
2022/03/25 14:03:26;;;;;;;34.75;28.05;;;;;;;28.94;14.39;101360.00;4911244;29;20044;-95
2022/03/25 14:11:12;;;;;;;36.72;30.73;;;;;;;29.72;13.57;101345.88;4855484;29;20126;-96
2022/03/25 14:14:28;;;;;;;38.25;29.90;;;;;;;29.89;14.14;101365.81;4916293;29;20075;-95
2022/03/25 14:18:10;;;;;;;37.13;29.95;;;;;;;30.46;13.95;101366.47;4906316;29;20086;-96
2022/03/25 14:21:01;;;;;;;34.10;29.77;;;;;;;30.58;13.13;101372.44;4919124;29;20076;-95
2022/03/25 14:27:05;;;;;;;36.03;30.83;;;;;;;29.37;13.92;101379.81;4881733;29;20145;-95
2022/03/25 14:30:11;;;;;;;35.15;29.50;;;;;;;29.40;14.48;101376.78;4877160;29;20080;-94
2022/03/25 14:33:17;;;;;;;36.42;29.83;;;;;;;29.85;14.33;101356.25;4877496;29;20053;-96
2022/03/25 14:36:06;;;;;;;36.45;30.30;;;;;;;30.26;13.52;101346.06;4873571;29;20157;-94
2022/03/25 14:38:34;;;;;;;36.42;31.27;;;;;;;30.71;13.05;101389.09;4874770;29;20055;-96
2022/03/25 14:41:14;;;;;;;37.28;29.90;;;;;;;30.04;13.44;101328.59;4873870;29;20270;-94
2022/03/25 14:43:41;;;;;;;38.15;30.27;;;;;;;30.64;13.48;101386.25;4877530;29;20048;-95
2022/03/25 14:46:12;;;;;;;39.40;30.70;;;;;;;30.50;13.48;101354.16;4878282;29;20045;-95
2022/03/25 14:48:53;;;;;;;36.63;29.15;;;;;;;30.09;14.35;101385.41;4839776;29;20060;-94
2022/03/25 14:51:41;;;;;;;34.20;30.02;;;;;;;30.04;13.67;101344.13;4875619;29;20076;-96
2022/03/25 14:54:11;;;;;;;35.35;29.75;;;;;;;29.35;14.19;101327.28;4874036;29;20057;-96
2022/03/25 14:56:55;;;;;;;;;;;;;;;29.71;14.12;101390.56;4876272;29;20121;-96
2022/03/25 14:59:35;;;;;;;34.33;30.00;;;;;;;29.57;13.63;101323.91;4875778;29;20485;-95
2022/03/25 15:02:38;;;;;;;36.22;30.40;;;;;;;29.89;13.81;101328.44;4851351;29;20058;-96
2022/03/25 15:05:19;;;;;;;40.90;31.92;;;;;;;30.03;13.79;101350.59;4803344;29;20057;-96
2022/03/25 15:08:08;;;;;;;36.42;30.10;;;;;;;29.52;14.32;101364.50;4820600;29;20285;-96
2022/03/25 15:14:53;;;;;;;40.15;31.75;;;;;;;28.10;16.06;101338.19;4766877;30;20052;-95
2022/03/25 15:21:10;;;;;;;41.40;32.13;;;;;;;27.14;15.52;101321.03;4743441;30;20063;-95
2022/03/25 15:24:03;;;;;;;43.58;32.88;;;;;;;25.35;17.67;101355.81;4766982;30;20226;-96
2022/03/25 15:27:08;;;;;;;43.83;32.58;;;;;;;25.56;17.85;101346.66;4766116;30;20151;-95
2022/03/25 15:35:52;;;;;;;43.53;32.38;;;;;;;27.33;15.77;101340.91;4814804;29;20053;-96
2022/03/25 15:38:40;;;;;;;40.80;31.70;;;;;;;25.62;17.16;101321.72;4829509;29;20155;-96
2022/03/25 15:41:21;;;;;;;43.78;32.38;;;;;;;23.95;19.03;101327.16;4876706;29;20064;-96
2022/03/25 15:44:34;;;;;;;45.53;32.53;;;;;;;22.74;20.32;101352.81;4876652;29;20059;-96
2022/03/25 15:47:21;;;;;;;42.03;32.40;;;;;;;21.64;21.50;101314.97;4864534;29;20143;-95
2022/03/25 15:50:08;;;;;;;44.00;31.80;;;;;;;21.11;22.37;101351.41;4874611;29;20057;-95
2022/03/25 15:53:05;;;;;;;42.38;30.70;;;;;;;20.54;23.51;101344.91;4875077;29;20076;-96
2022/03/25 15:56:12;;;;;;;47.47;32.35;;;;;;;20.13;23.17;101317.44;4872713;29;20061;-96
2022/03/25 15:58:45;;;;;;;47.28;30.25;;;;;;;20.07;23.60;101339.38;4875697;29;20427;-95
2022/03/25 16:01:46;;;;;;;51.72;31.73;;;;;;;19.85;23.81;101337.34;4866052;29;20045;-95
2022/03/25 16:04:14;;;;;;;43.20;30.95;;;;;;;19.56;24.17;101345.63;4912229;29;20086;-95
2022/03/25 16:06:53;;;;;;;44.63;30.70;;;;;;;19.24;24.61;101320.09;4919004;29;20052;-94
2022/03/25 16:09:43;;;;;;;43.75;30.25;;;;;;;19.25;24.46;101346.84;4915203;29;20088;-95
2022/03/25 16:12:52;;;;;;;42.60;29.45;;;;;;;19.11;24.71;101365.72;4918569;29;20090;-92
2022/03/25 16:15:34;;;;;;;47.38;30.02;;;;;;;18.76;25.26;101351.09;4904695;29;20126;-95
2022/03/25 16:18:12;;;;;;;43.50;30.27;;;;;;;18.83;25.35;101381.94;4914094;29;20111;-95
2022/03/25 16:20:40;;;;;;;47.65;30.27;;;;;;;18.41;25.39;101345.34;4906771;29;20048;-95
2022/03/25 16:23:09;;;;;;;42.70;29.10;;;;;;;18.22;25.78;101326.91;4914272;29;20068;-96
2022/03/25 16:25:51;;;;;;;41.75;28.58;;;;;;;18.12;26.07;101331.97;4893959;29;20048;-96
2022/03/25 16:31:40;;;;;;;44.80;28.70;;;;;;;18.06;25.98;101351.13;4959721;23;20072;-95
2022/03/25 16:34:09;;;;;;;42.78;28.67;;;;;;;17.87;26.18;101337.16;4855205;29;20069;-96
2022/03/25 16:36:46;;;;;;;47.83;28.40;;;;;;;17.72;27.13;101328.25;4862285;29;20132;-95
2022/03/25 16:39:40;;;;;;;41.83;27.95;;;;;;;17.57;27.54;101339.88;4849224;29;20153;-96
2022/03/25 16:42:11;;;;;;;42.13;27.42;;;;;;;17.69;27.13;101365.06;4843991;29;20053;-95
2022/03/25 16:45:02;;;;;;;44.85;28.23;;;;;;;17.62;27.46;101358.34;4859419;29;20053;-93
2022/03/25 16:51:52;;;;;;;44.55;27.58;;;;;;;17.42;27.66;101372.94;4781720;29;20041;-95
2022/03/25 17:22:10;;;;;;;41.92;26.23;;;;;;;16.07;30.49;101378.84;4908405;29;20071;-93
2022/03/25 17:25:28;;;;;;;;;;;;;;;;;;;;;
2022/03/25 17:28:12;;;;;;;42.03;26.77;;;;;;;15.82;31.29;101391.81;5011907;23;20080;-95
2022/03/25 17:31:22;;;;;;;45.45;27.80;;;;;;;15.56;31.70;101362.03;4926936;29;20052;-92
2022/03/25 17:34:09;;;;;;;42.90;26.40;;;;;;;15.48;31.70;101373.97;5007115;23;21181;-94
2022/03/25 17:37:15;;;;;;;44.38;26.52;;;;;;;15.45;31.99;101402.56;5296426;24;20043;-93
2022/03/25 17:46:26;;;;;;;41.05;26.00;;;;;;;15.08;32.90;101414.25;1164096;24;20402;-90
2022/03/25 17:55:14;;;;;;;43.97;26.17;;;;;;;14.77;33.32;101424.69;4874165;29;20041;-95
2022/03/25 17:58:24;;;;;;;42.85;25.65;;;;;;;14.57;33.83;101409.63;4874812;29;20303;-93
2022/03/25 18:01:00;;;;;;;44.30;26.42;;;;;;;14.47;33.84;101415.47;4873243;29;20042;-95
2022/03/25 18:04:31;;;;;;;47.55;27.20;;;;;;;14.30;34.20;101395.78;4872213;29;20037;-93
2022/03/25 18:07:18;;;;;;;45.15;25.80;;;;;;;14.30;34.00;101417.09;4842958;29;20042;-91
2022/03/25 18:10:41;;;;;;;;;;;;;;;;;;;;;
2022/03/25 18:13:24;;;;;;;45.53;27.65;;;;;;;13.93;35.20;101404.56;4899373;29;20055;-94
2022/03/25 18:16:33;;;;;;;43.72;25.77;;;;;;;13.99;34.53;101427.41;4878575;29;20049;-92
2022/03/25 18:20:09;;;;;;;39.95;25.73;;;;;;;14.14;35.38;101469.34;5087760;23;20139;-94
2022/03/25 18:26:46;;;;;;;48.23;26.87;;;;;;;14.08;35.17;101466.94;5306755;23;20028;31
2022/03/25 18:30:07;;;;;;;40.47;25.52;;;;;;;14.08;34.87;101474.91;5344845;23;20052;31
2022/03/25 18:34:00;;;;;;;44.38;25.50;;;;;;;13.96;34.64;101475.47;4856419;29;19920;-93
2022/03/25 18:36:57;;;;;;;46.03;27.52;;;;;;;13.56;35.36;101434.59;4846926;29;20053;-96
2022/03/25 18:40:33;;;;;;;;;;;;;;;;;;;;;
2022/03/25 18:43:30;;;;;;;;;;;;;;;;;;;;;
2022/03/25 18:46:24;;;;;;;47.35;26.67;;;;;;;13.76;35.48;101494.09;4840318;29;20053;-91
2022/03/25 18:49:16;;;;;;;46.72;26.60;;;;;;;13.78;35.02;101492.22;4862956;23;20050;-96
2022/03/25 18:51:58;;;;;;;49.30;27.13;;;;;;;13.79;34.96;101473.53;4844213;29;20053;-94
2022/03/25 18:55:11;;;;;;;45.63;27.33;;;;;;;13.67;34.89;101450.97;5036162;24;20050;-93
2022/03/25 18:58:00;;;;;;;46.78;28.00;;;;;;;13.47;35.18;101435.00;5140748;23;20045;-94
2022/03/25 19:00:50;;;;;;;45.30;27.75;;;;;;;13.47;35.64;101458.06;4886525;29;20043;-96
2022/03/25 19:14:19;;;;;;;48.20;27.02;;;;;;;13.18;36.75;101504.50;5384481;22;2072337;31
2022/03/25 19:17:19;;;;;;;48.70;27.00;;;;;;;12.76;37.21;101452.03;4984863;28;20043;-93
2022/03/25 19:20:06;;;;;;;49.55;27.73;;;;;;;12.97;37.27;101508.81;5106053;23;20069;-92
2022/03/25 19:22:55;;;;;;;;;;;;;;;;;;;;;
2022/03/25 19:25:47;;;;;;;47.33;27.38;;;;;;;12.56;38.49;101490.03;5148834;23;20066;-94
2022/03/25 19:28:54;;;;;;;48.05;27.27;;;;;;;12.51;38.40;101507.06;5193603;22;20108;-94
2022/03/25 19:35:19;;;;;;;48.08;26.73;;;;;;;12.31;39.35;101523.72;5594287;23;21403;31
2022/03/25 19:38:04;;;;;;;49.75;27.75;;;;;;;11.88;39.45;101480.13;4904628;29;20073;-95
2022/03/25 19:40:38;;;;;;;47.78;26.77;;;;;;;11.99;39.53;101508.94;4901664;29;20061;-95
2022/03/25 19:43:19;;;;;;;44.78;25.55;;;;;;;11.88;39.60;101500.50;4897749;29;20140;-94
2022/03/25 19:45:53;;;;;;;45.80;26.77;;;;;;;11.99;39.97;101535.47;4901009;29;20048;-95
2022/03/25 19:48:22;;;;;;;46.67;26.85;;;;;;;11.54;40.53;101472.41;4901007;29;20200;-95
2022/03/25 19:51:01;;;;;;;49.50;28.00;;;;;;;11.53;40.21;101483.06;4902637;29;20052;-95
2022/03/25 19:53:36;;;;;;;46.33;26.73;;;;;;;11.63;39.91;101507.53;4906155;29;20059;-95
2022/03/25 19:56:31;;;;;;;47.80;26.70;;;;;;;11.55;40.29;101499.81;4886847;29;20080;-93
2022/03/25 19:59:33;;;;;;;45.30;26.48;;;;;;;11.51;40.00;101493.75;4899793;29;20081;-93
2022/03/25 20:02:24;;;;;;;47.00;26.27;;;;;;;11.63;39.86;101515.50;4898987;29;20048;-93
2022/03/25 20:09:17;;;;;;;49.85;25.67;;;;;;;11.40;39.61;101500.31;5074953;23;20068;-95
2022/03/25 20:13:11;;;;;;;45.33;25.27;;;;;;;11.64;39.35;101541.97;4936806;29;20071;-94
2022/03/25 20:22:44;;;;;;;43.58;25.33;;;;;;;11.52;39.82;101559.13;5095284;23;20069;-94
2022/03/25 20:25:33;;;;;;;44.40;25.13;;;;;;;11.14;39.77;101499.41;4905033;29;20037;-93
2022/03/25 20:35:01;;;;;;;52.92;26.23;;;;;;;11.05;40.29;101543.84;5023286;23;20115;-95
2022/03/25 20:37:56;;;;;;;44.38;25.33;;;;;;;10.81;40.28;101511.91;4933317;29;20027;-93
2022/03/25 20:40:43;;;;;;;41.88;23.95;;;;;;;10.87;40.09;101522.28;4906066;29;20478;-95
2022/03/25 20:43:27;;;;;;;43.03;23.92;;;;;;;10.95;39.59;101531.81;4909570;29;20072;-93
2022/03/25 20:46:29;;;;;;;44.70;24.35;;;;;;;10.94;39.48;101544.19;4912493;29;20052;-92
2022/03/25 20:54:57;;;;;;;43.92;23.55;;;;;;;10.69;39.63;101527.31;4919549;29;20040;-94
2022/03/25 20:57:46;;;;;;;51.85;24.13;;;;;;;10.70;39.69;101529.91;5027243;23;20135;-93
2022/03/25 21:00:22;;;;;;;38.20;21.95;;;;;;;11.01;39.66;101588.16;4956149;28;20043;-95
2022/03/25 21:03:10;;;;;;;39.70;22.52;;;;;;;10.57;39.39;101519.69;4949294;29;20098;-95
2022/03/25 21:05:59;;;;;;;41.80;21.38;;;;;;;10.94;39.40;101596.31;4956964;29;20107;-95
2022/03/25 21:09:20;;;;;;;38.20;20.83;;;;;;;10.95;38.69;101598.06;5214702;23;20112;-91
2022/03/25 21:20:53;;;;;;;37.95;20.30;;;;;;;10.79;38.28;101600.28;4909990;29;20040;-94
2022/03/25 21:23:48;;;;;;;33.17;18.87;;;;;;;10.47;38.88;101550.88;4909962;29;20523;-94
2022/03/25 22:08:28;;;;;;;38.10;19.73;;;;;;;9.69;41.60;101599.66;4924192;29;20070;-94
2022/03/25 22:11:36;;;;;;;38.13;20.98;;;;;;;9.44;41.21;101563.19;4974411;23;20059;-94
2022/03/25 22:14:47;;;;;;;36.10;18.70;;;;;;;9.79;40.52;101624.97;4942770;27;20095;-94
2022/03/25 22:18:03;;;;;;;37.55;19.83;;;;;;;9.59;40.43;101580.50;4933349;29;20047;-96
2022/03/25 22:31:35;;;;;;;35.97;18.17;;;;;;;9.57;40.30;101581.44;4905952;29;20068;-94
2022/03/25 22:34:27;;;;;;;32.22;17.02;;;;;;;9.92;40.32;101647.56;4892254;29;20057;-93
2022/03/25 22:37:06;;;;;;;34.15;18.17;;;;;;;9.62;39.63;101590.13;4888904;29;20153;-94
2022/03/25 22:39:51;;;;;;;33.88;18.00;;;;;;;9.67;39.94;101614.69;4900217;29;20064;-92
2022/03/25 22:42:25;;;;;;;37.58;19.83;;;;;;;9.76;40.32;101640.91;4892501;29;20062;-95
2022/03/25 22:45:12;;;;;;;34.67;18.33;;;;;;;9.64;40.34;101630.63;4897746;29;20061;-94
2022/03/25 22:55:15;;;;;;;33.42;17.90;;;;;;;9.70;40.81;101664.88;4894267;29;20116;-95
2022/03/25 22:58:03;;;;;;;38.45;19.10;;;;;;;9.31;41.02;101608.47;4898787;29;20048;-95
2022/03/25 23:08:42;;;;;;;34.55;18.80;;;;;;;9.44;41.82;101666.31;4851042;29;20072;-93
